sensor_id;sensor_type;location;lat;lon;timestamp;P1;durP1;ratioP1;P2;durP2;ratioP2
41167;SDS011;26906;45.658;9.272;2023-03-14T06:36:23;24.02;;;17.17;;
41167;SDS011;26906;45.658;9.272;2023-03-14T06:38:49;21.13;;;16.92;;
41167;SDS011;26906;45.658;9.272;2023-03-14T06:41:15;21.08;;;17.20;;
41167;SDS011;26906;45.658;9.272;2023-03-14T06:43:43;23.00;;;17.92;;
41167;SDS011;26906;45.658;9.272;2023-03-14T06:46:10;26.88;;;18.67;;
41167;SDS011;26906;45.658;9.272;2023-03-14T06:48:38;26.33;;;19.48;;
41167;SDS011;26906;45.658;9.272;2023-03-14T06:51:05;24.60;;;19.55;;
41167;SDS011;26906;45.658;9.272;2023-03-14T06:53:31;24.08;;;18.77;;
41167;SDS011;26906;45.658;9.272;2023-03-14T06:55:59;23.75;;;17.98;;
41167;SDS011;26906;45.658;9.272;2023-03-14T06:58:27;22.00;;;18.05;;
41167;SDS011;26906;45.658;9.272;2023-03-14T07:00:54;27.77;;;18.33;;
41167;SDS011;26906;45.658;9.272;2023-03-14T07:03:23;26.90;;;19.00;;
41167;SDS011;26906;45.658;9.272;2023-03-14T07:05:52;24.83;;;18.45;;
41167;SDS011;26906;45.658;9.272;2023-03-14T07:08:18;26.88;;;18.35;;
41167;SDS011;26906;45.658;9.272;2023-03-14T07:10:44;23.88;;;17.88;;
41167;SDS011;26906;45.658;9.272;2023-03-14T07:13:10;23.23;;;19.02;;
41167;SDS011;26906;45.658;9.272;2023-03-14T07:15:47;22.83;;;18.38;;
41167;SDS011;26906;45.658;9.272;2023-03-14T07:18:13;26.27;;;18.58;;
41167;SDS011;26906;45.658;9.272;2023-03-14T07:20:38;27.40;;;19.80;;
41167;SDS011;26906;45.658;9.272;2023-03-14T07:23:05;25.40;;;20.02;;
41167;SDS011;26906;45.658;9.272;2023-03-14T07:25:39;25.63;;;19.67;;
41167;SDS011;26906;45.658;9.272;2023-03-14T07:28:05;26.83;;;19.58;;
41167;SDS011;26906;45.658;9.272;2023-03-14T07:30:31;26.70;;;18.95;;
41167;SDS011;26906;45.658;9.272;2023-03-14T07:32:58;24.95;;;20.25;;
41167;SDS011;26906;45.658;9.272;2023-03-14T07:35:31;26.27;;;20.17;;
41167;SDS011;26906;45.658;9.272;2023-03-14T07:37:57;35.42;;;19.48;;
41167;SDS011;26906;45.658;9.272;2023-03-14T07:40:30;29.35;;;20.52;;
41167;SDS011;26906;45.658;9.272;2023-03-14T07:42:56;26.17;;;19.23;;
41167;SDS011;26906;45.658;9.272;2023-03-14T07:45:26;29.20;;;19.98;;
41167;SDS011;26906;45.658;9.272;2023-03-14T07:47:51;30.77;;;20.40;;
41167;SDS011;26906;45.658;9.272;2023-03-14T07:50:17;35.63;;;21.35;;
41167;SDS011;26906;45.658;9.272;2023-03-14T07:52:44;31.45;;;20.05;;
41167;SDS011;26906;45.658;9.272;2023-03-14T07:55:09;35.38;;;21.05;;
41167;SDS011;26906;45.658;9.272;2023-03-14T07:57:35;28.20;;;19.30;;
41167;SDS011;26906;45.658;9.272;2023-03-14T08:00:01;27.63;;;19.38;;
41167;SDS011;26906;45.658;9.272;2023-03-14T08:02:38;29.13;;;20.00;;
41167;SDS011;26906;45.658;9.272;2023-03-14T08:05:04;27.17;;;18.38;;
41167;SDS011;26906;45.658;9.272;2023-03-14T08:07:33;26.30;;;20.17;;
41167;SDS011;26906;45.658;9.272;2023-03-14T08:09:59;31.08;;;20.33;;
41167;SDS011;26906;45.658;9.272;2023-03-14T08:12:24;28.52;;;20.75;;
41167;SDS011;26906;45.658;9.272;2023-03-14T08:14:50;26.48;;;20.10;;
41167;SDS011;26906;45.658;9.272;2023-03-14T08:17:23;29.73;;;21.15;;
41167;SDS011;26906;45.658;9.272;2023-03-14T08:19:49;29.35;;;19.65;;
41167;SDS011;26906;45.658;9.272;2023-03-14T08:22:14;29.83;;;21.17;;
41167;SDS011;26906;45.658;9.272;2023-03-14T08:24:40;32.85;;;21.60;;
41167;SDS011;26906;45.658;9.272;2023-03-14T08:27:06;27.83;;;19.63;;
41167;SDS011;26906;45.658;9.272;2023-03-14T08:29:31;34.53;;;21.42;;
41167;SDS011;26906;45.658;9.272;2023-03-14T08:31:57;31.92;;;20.88;;
41167;SDS011;26906;45.658;9.272;2023-03-14T08:34:23;30.42;;;20.10;;
41167;SDS011;26906;45.658;9.272;2023-03-14T08:36:48;26.50;;;18.67;;
41167;SDS011;26906;45.658;9.272;2023-03-14T08:39:15;28.35;;;19.58;;
41167;SDS011;26906;45.658;9.272;2023-03-14T08:41:42;25.85;;;19.13;;
41167;SDS011;26906;45.658;9.272;2023-03-14T08:44:10;25.77;;;18.90;;
41167;SDS011;26906;45.658;9.272;2023-03-14T08:46:39;22.20;;;18.25;;
41167;SDS011;26906;45.658;9.272;2023-03-14T08:49:04;22.92;;;18.27;;
41167;SDS011;26906;45.658;9.272;2023-03-14T08:51:31;22.80;;;17.35;;
41167;SDS011;26906;45.658;9.272;2023-03-14T08:53:57;22.33;;;17.38;;
41167;SDS011;26906;45.658;9.272;2023-03-14T08:56:23;25.38;;;17.73;;
41167;SDS011;26906;45.658;9.272;2023-03-14T08:58:48;22.48;;;17.05;;
41167;SDS011;26906;45.658;9.272;2023-03-14T09:01:14;20.35;;;17.70;;
41167;SDS011;26906;45.658;9.272;2023-03-14T09:03:41;26.05;;;17.20;;
41167;SDS011;26906;45.658;9.272;2023-03-14T09:06:07;20.13;;;15.73;;
41167;SDS011;26906;45.658;9.272;2023-03-14T09:08:34;21.30;;;15.65;;
41167;SDS011;26906;45.658;9.272;2023-03-14T09:11:01;19.52;;;14.95;;
41167;SDS011;26906;45.658;9.272;2023-03-14T09:13:27;20.08;;;15.50;;
41167;SDS011;26906;45.658;9.272;2023-03-14T09:15:53;20.38;;;15.40;;
41167;SDS011;26906;45.658;9.272;2023-03-14T09:18:20;20.90;;;15.32;;
41167;SDS011;26906;45.658;9.272;2023-03-14T09:20:45;19.55;;;15.30;;
41167;SDS011;26906;45.658;9.272;2023-03-14T09:23:11;18.25;;;14.57;;
41167;SDS011;26906;45.658;9.272;2023-03-14T09:25:37;20.80;;;15.07;;
41167;SDS011;26906;45.658;9.272;2023-03-14T09:28:03;21.13;;;17.27;;
41167;SDS011;26906;45.658;9.272;2023-03-14T09:30:29;23.98;;;17.85;;
41167;SDS011;26906;45.658;9.272;2023-03-14T09:32:55;20.70;;;15.93;;
41167;SDS011;26906;45.658;9.272;2023-03-14T09:35:22;19.38;;;15.20;;
41167;SDS011;26906;45.658;9.272;2023-03-14T09:37:47;22.02;;;16.05;;
41167;SDS011;26906;45.658;9.272;2023-03-14T09:40:14;24.52;;;16.33;;
41167;SDS011;26906;45.658;9.272;2023-03-14T09:42:42;20.70;;;13.57;;
41167;SDS011;26906;45.658;9.272;2023-03-14T09:45:12;17.67;;;13.52;;
41167;SDS011;26906;45.658;9.272;2023-03-14T09:48:02;18.10;;;14.20;;
41167;SDS011;26906;45.658;9.272;2023-03-14T09:50:40;20.83;;;14.63;;
41167;SDS011;26906;45.658;9.272;2023-03-14T09:53:18;20.80;;;15.80;;
41167;SDS011;26906;45.658;9.272;2023-03-14T09:55:46;22.30;;;15.52;;
41167;SDS011;26906;45.658;9.272;2023-03-14T09:58:21;22.67;;;16.35;;
41167;SDS011;26906;45.658;9.272;2023-03-14T10:00:52;23.02;;;15.63;;
41167;SDS011;26906;45.658;9.272;2023-03-14T10:03:26;22.63;;;16.15;;
41167;SDS011;26906;45.658;9.272;2023-03-14T10:05:57;22.25;;;15.68;;
41167;SDS011;26906;45.658;9.272;2023-03-14T10:08:23;19.95;;;14.70;;
41167;SDS011;26906;45.658;9.272;2023-03-14T10:10:49;21.88;;;15.23;;
41167;SDS011;26906;45.658;9.272;2023-03-14T10:13:26;24.40;;;15.77;;
41167;SDS011;26906;45.658;9.272;2023-03-14T10:15:54;23.23;;;16.42;;
41167;SDS011;26906;45.658;9.272;2023-03-14T10:18:25;22.25;;;16.05;;
41167;SDS011;26906;45.658;9.272;2023-03-14T10:23:36;43.17;;;36.28;;
41167;SDS011;26906;45.658;9.272;2023-03-14T10:26:08;28.25;;;23.80;;
41167;SDS011;26906;45.658;9.272;2023-03-14T10:28:39;18.13;;;14.57;;
41167;SDS011;26906;45.658;9.272;2023-03-14T10:31:06;21.98;;;17.35;;
41167;SDS011;26906;45.658;9.272;2023-03-14T10:33:32;20.05;;;17.00;;
41167;SDS011;26906;45.658;9.272;2023-03-14T10:36:02;24.83;;;17.85;;
41167;SDS011;26906;45.658;9.272;2023-03-14T10:38:30;23.17;;;20.40;;
41167;SDS011;26906;45.658;9.272;2023-03-14T10:40:57;15.77;;;13.23;;
41167;SDS011;26906;45.658;9.272;2023-03-14T10:43:31;16.88;;;12.80;;
41167;SDS011;26906;45.658;9.272;2023-03-14T10:48:53;17.52;;;12.77;;
41167;SDS011;26906;45.658;9.272;2023-03-14T10:51:24;16.73;;;12.15;;
41167;SDS011;26906;45.658;9.272;2023-03-14T10:53:56;15.15;;;12.60;;
41167;SDS011;26906;45.658;9.272;2023-03-14T10:56:25;15.85;;;13.50;;
41167;SDS011;26906;45.658;9.272;2023-03-14T10:58:58;22.27;;;14.13;;
41167;SDS011;26906;45.658;9.272;2023-03-14T11:01:38;19.88;;;13.82;;
41167;SDS011;26906;45.658;9.272;2023-03-14T11:06:56;14.57;;;11.95;;
41167;SDS011;26906;45.658;9.272;2023-03-14T11:09:43;14.55;;;12.95;;
41167;SDS011;26906;45.658;9.272;2023-03-14T11:12:39;19.45;;;12.70;;
41167;SDS011;26906;45.658;9.272;2023-03-14T11:15:17;15.60;;;13.32;;
41167;SDS011;26906;45.658;9.272;2023-03-14T11:23:01;19.60;;;13.95;;
41167;SDS011;26906;45.658;9.272;2023-03-14T11:25:53;17.55;;;14.40;;
41167;SDS011;26906;45.658;9.272;2023-03-14T11:28:39;17.05;;;13.48;;
41167;SDS011;26906;45.658;9.272;2023-03-14T11:31:26;18.13;;;14.15;;
41167;SDS011;26906;45.658;9.272;2023-03-14T11:39:29;20.83;;;15.05;;
41167;SDS011;26906;45.658;9.272;2023-03-14T11:42:04;20.10;;;14.75;;
41167;SDS011;26906;45.658;9.272;2023-03-14T11:44:44;19.27;;;14.25;;
41167;SDS011;26906;45.658;9.272;2023-03-14T11:47:32;16.95;;;14.07;;
41167;SDS011;26906;45.658;9.272;2023-03-14T11:52:46;17.10;;;13.75;;
41167;SDS011;26906;45.658;9.272;2023-03-14T11:55:23;20.13;;;14.20;;
41167;SDS011;26906;45.658;9.272;2023-03-14T11:57:59;17.45;;;15.18;;
41167;SDS011;26906;45.658;9.272;2023-03-14T12:00:34;20.58;;;14.15;;
41167;SDS011;26906;45.658;9.272;2023-03-14T12:03:21;21.70;;;16.50;;
41167;SDS011;26906;45.658;9.272;2023-03-14T12:05:57;22.88;;;15.63;;
41167;SDS011;26906;45.658;9.272;2023-03-14T12:13:45;17.08;;;13.20;;
41167;SDS011;26906;45.658;9.272;2023-03-14T12:18:48;17.50;;;13.65;;
41167;SDS011;26906;45.658;9.272;2023-03-14T12:21:18;19.58;;;13.40;;
41167;SDS011;26906;45.658;9.272;2023-03-14T12:26:20;15.73;;;13.00;;
41167;SDS011;26906;45.658;9.272;2023-03-14T12:29:14;17.23;;;13.02;;
41167;SDS011;26906;45.658;9.272;2023-03-14T12:31:42;15.70;;;13.60;;
41167;SDS011;26906;45.658;9.272;2023-03-14T12:42:08;14.80;;;11.70;;
41167;SDS011;26906;45.658;9.272;2023-03-14T12:44:41;16.02;;;13.05;;
41167;SDS011;26906;45.658;9.272;2023-03-14T12:49:46;15.52;;;12.88;;
41167;SDS011;26906;45.658;9.272;2023-03-14T12:52:15;17.40;;;11.95;;
41167;SDS011;26906;45.658;9.272;2023-03-14T12:57:36;15.05;;;11.85;;
41167;SDS011;26906;45.658;9.272;2023-03-14T13:00:17;15.32;;;11.30;;
41167;SDS011;26906;45.658;9.272;2023-03-14T13:02:46;12.50;;;10.55;;
41167;SDS011;26906;45.658;9.272;2023-03-14T13:05:20;16.05;;;10.75;;
41167;SDS011;26906;45.658;9.272;2023-03-14T13:15:44;14.13;;;11.25;;
41167;SDS011;26906;45.658;9.272;2023-03-14T13:18:12;15.00;;;11.57;;
41167;SDS011;26906;45.658;9.272;2023-03-14T13:20:59;17.98;;;11.80;;
41167;SDS011;26906;45.658;9.272;2023-03-14T13:23:56;15.93;;;11.10;;
41167;SDS011;26906;45.658;9.272;2023-03-14T13:26:23;13.35;;;10.95;;
41167;SDS011;26906;45.658;9.272;2023-03-14T13:28:50;14.18;;;10.70;;
41167;SDS011;26906;45.658;9.272;2023-03-14T13:31:21;14.02;;;9.75;;
41167;SDS011;26906;45.658;9.272;2023-03-14T13:33:58;12.48;;;10.10;;
41167;SDS011;26906;45.658;9.272;2023-03-14T13:36:25;14.63;;;11.35;;
41167;SDS011;26906;45.658;9.272;2023-03-14T13:38:55;12.85;;;10.55;;
41167;SDS011;26906;45.658;9.272;2023-03-14T13:41:23;15.55;;;10.95;;
41167;SDS011;26906;45.658;9.272;2023-03-14T13:43:49;15.05;;;10.68;;
41167;SDS011;26906;45.658;9.272;2023-03-14T13:46:16;13.38;;;10.23;;
41167;SDS011;26906;45.658;9.272;2023-03-14T13:48:57;12.48;;;10.52;;
41167;SDS011;26906;45.658;9.272;2023-03-14T13:51:25;11.27;;;9.15;;
41167;SDS011;26906;45.658;9.272;2023-03-14T13:53:56;10.48;;;9.43;;
41167;SDS011;26906;45.658;9.272;2023-03-14T13:56:25;11.57;;;10.38;;
41167;SDS011;26906;45.658;9.272;2023-03-14T13:58:53;10.40;;;8.82;;
41167;SDS011;26906;45.658;9.272;2023-03-14T14:01:29;12.02;;;9.05;;
41167;SDS011;26906;45.658;9.272;2023-03-14T14:04:07;11.13;;;9.80;;
41167;SDS011;26906;45.658;9.272;2023-03-14T14:06:39;11.88;;;9.38;;
41167;SDS011;26906;45.658;9.272;2023-03-14T14:09:19;10.93;;;8.48;;
41167;SDS011;26906;45.658;9.272;2023-03-14T14:14:21;10.98;;;8.85;;
41167;SDS011;26906;45.658;9.272;2023-03-14T14:17:00;11.82;;;8.77;;
41167;SDS011;26906;45.658;9.272;2023-03-14T14:19:30;8.98;;;8.05;;
41167;SDS011;26906;45.658;9.272;2023-03-14T14:21:58;11.77;;;8.85;;
41167;SDS011;26906;45.658;9.272;2023-03-14T14:24:28;8.45;;;7.53;;
41167;SDS011;26906;45.658;9.272;2023-03-14T14:26:59;9.90;;;8.05;;
41167;SDS011;26906;45.658;9.272;2023-03-14T14:29:28;10.00;;;8.23;;
41167;SDS011;26906;45.658;9.272;2023-03-14T14:34:40;9.70;;;8.30;;
41167;SDS011;26906;45.658;9.272;2023-03-14T14:37:40;11.13;;;9.00;;
41167;SDS011;26906;45.658;9.272;2023-03-14T14:40:08;12.98;;;8.35;;
41167;SDS011;26906;45.658;9.272;2023-03-14T14:42:35;11.02;;;8.52;;
41167;SDS011;26906;45.658;9.272;2023-03-14T14:45:05;10.23;;;8.77;;
41167;SDS011;26906;45.658;9.272;2023-03-14T14:47:47;12.45;;;8.80;;
41167;SDS011;26906;45.658;9.272;2023-03-14T14:52:57;15.32;;;9.32;;
41167;SDS011;26906;45.658;9.272;2023-03-14T14:55:28;11.98;;;8.30;;
41167;SDS011;26906;45.658;9.272;2023-03-14T14:58:10;10.20;;;8.15;;
41167;SDS011;26906;45.658;9.272;2023-03-14T15:00:49;9.30;;;7.80;;
41167;SDS011;26906;45.658;9.272;2023-03-14T15:03:21;12.68;;;8.52;;
41167;SDS011;26906;45.658;9.272;2023-03-14T15:05:47;10.00;;;8.77;;
41167;SDS011;26906;45.658;9.272;2023-03-14T15:08:13;12.27;;;9.23;;
41167;SDS011;26906;45.658;9.272;2023-03-14T15:10:40;11.25;;;8.90;;
41167;SDS011;26906;45.658;9.272;2023-03-14T15:13:05;14.35;;;9.70;;
41167;SDS011;26906;45.658;9.272;2023-03-14T15:15:31;11.93;;;9.07;;
41167;SDS011;26906;45.658;9.272;2023-03-14T15:17:57;12.02;;;9.73;;
41167;SDS011;26906;45.658;9.272;2023-03-14T15:20:23;12.88;;;10.30;;
41167;SDS011;26906;45.658;9.272;2023-03-14T15:22:49;12.20;;;9.70;;
41167;SDS011;26906;45.658;9.272;2023-03-14T15:25:15;13.38;;;9.60;;
41167;SDS011;26906;45.658;9.272;2023-03-14T15:27:41;13.20;;;9.32;;
41167;SDS011;26906;45.658;9.272;2023-03-14T15:30:17;11.00;;;9.85;;
41167;SDS011;26906;45.658;9.272;2023-03-14T15:32:43;13.32;;;9.70;;
41167;SDS011;26906;45.658;9.272;2023-03-14T15:35:09;14.48;;;9.65;;
41167;SDS011;26906;45.658;9.272;2023-03-14T15:37:35;15.50;;;10.18;;
41167;SDS011;26906;45.658;9.272;2023-03-14T15:40:01;13.45;;;10.27;;
41167;SDS011;26906;45.658;9.272;2023-03-14T15:42:35;15.38;;;10.32;;
41167;SDS011;26906;45.658;9.272;2023-03-14T15:45:00;13.43;;;10.27;;
41167;SDS011;26906;45.658;9.272;2023-03-14T15:47:26;17.15;;;10.90;;
41167;SDS011;26906;45.658;9.272;2023-03-14T15:49:52;14.32;;;10.50;;
41167;SDS011;26906;45.658;9.272;2023-03-14T15:52:18;14.75;;;10.02;;
41167;SDS011;26906;45.658;9.272;2023-03-14T15:54:44;17.40;;;11.50;;
41167;SDS011;26906;45.658;9.272;2023-03-14T15:57:10;13.25;;;10.23;;
41167;SDS011;26906;45.658;9.272;2023-03-14T15:59:36;14.38;;;11.07;;
41167;SDS011;26906;45.658;9.272;2023-03-14T16:02:01;16.75;;;12.77;;
41167;SDS011;26906;45.658;9.272;2023-03-14T16:04:27;15.80;;;12.52;;
41167;SDS011;26906;45.658;9.272;2023-03-14T16:06:52;16.58;;;12.52;;
41167;SDS011;26906;45.658;9.272;2023-03-14T16:09:18;18.88;;;13.68;;
41167;SDS011;26906;45.658;9.272;2023-03-14T16:11:44;17.40;;;14.15;;
41167;SDS011;26906;45.658;9.272;2023-03-14T16:14:11;17.00;;;13.20;;
41167;SDS011;26906;45.658;9.272;2023-03-14T16:16:36;20.58;;;14.23;;
41167;SDS011;26906;45.658;9.272;2023-03-14T16:19:02;21.95;;;14.73;;
41167;SDS011;26906;45.658;9.272;2023-03-14T16:21:30;18.73;;;14.40;;
41167;SDS011;26906;45.658;9.272;2023-03-14T16:23:57;21.63;;;15.13;;
41167;SDS011;26906;45.658;9.272;2023-03-14T16:26:23;20.23;;;15.00;;
41167;SDS011;26906;45.658;9.272;2023-03-14T16:28:49;18.85;;;14.73;;
41167;SDS011;26906;45.658;9.272;2023-03-14T16:31:15;19.55;;;14.80;;
41167;SDS011;26906;45.658;9.272;2023-03-14T16:33:45;17.95;;;15.30;;
41167;SDS011;26906;45.658;9.272;2023-03-14T16:36:11;20.52;;;14.98;;
41167;SDS011;26906;45.658;9.272;2023-03-14T16:38:38;19.08;;;15.18;;
41167;SDS011;26906;45.658;9.272;2023-03-14T16:41:13;21.98;;;13.88;;
41167;SDS011;26906;45.658;9.272;2023-03-14T16:43:40;19.20;;;14.38;;
41167;SDS011;26906;45.658;9.272;2023-03-14T16:46:14;17.55;;;13.60;;
41167;SDS011;26906;45.658;9.272;2023-03-14T16:48:43;16.73;;;13.60;;
41167;SDS011;26906;45.658;9.272;2023-03-14T16:51:09;22.70;;;13.43;;
41167;SDS011;26906;45.658;9.272;2023-03-14T16:53:35;17.35;;;13.68;;
41167;SDS011;26906;45.658;9.272;2023-03-14T16:56:01;19.40;;;13.77;;
41167;SDS011;26906;45.658;9.272;2023-03-14T16:58:27;18.00;;;13.75;;
41167;SDS011;26906;45.658;9.272;2023-03-14T17:00:55;20.20;;;14.27;;
41167;SDS011;26906;45.658;9.272;2023-03-14T17:03:24;17.27;;;13.88;;
41167;SDS011;26906;45.658;9.272;2023-03-14T17:05:51;17.55;;;13.65;;
41167;SDS011;26906;45.658;9.272;2023-03-14T17:08:18;17.02;;;13.23;;
41167;SDS011;26906;45.658;9.272;2023-03-14T17:10:44;22.35;;;14.70;;
41167;SDS011;26906;45.658;9.272;2023-03-14T17:13:10;17.48;;;13.52;;
41167;SDS011;26906;45.658;9.272;2023-03-14T17:15:53;20.92;;;14.25;;
41167;SDS011;26906;45.658;9.272;2023-03-14T17:18:19;19.67;;;14.75;;
41167;SDS011;26906;45.658;9.272;2023-03-14T17:20:46;24.13;;;16.23;;
41167;SDS011;26906;45.658;9.272;2023-03-14T17:23:12;27.70;;;15.95;;
41167;SDS011;26906;45.658;9.272;2023-03-14T17:25:37;19.33;;;15.48;;
41167;SDS011;26906;45.658;9.272;2023-03-14T17:28:04;24.33;;;16.50;;
41167;SDS011;26906;45.658;9.272;2023-03-14T17:30:30;23.58;;;15.43;;
41167;SDS011;26906;45.658;9.272;2023-03-14T17:32:56;23.35;;;15.18;;
41167;SDS011;26906;45.658;9.272;2023-03-14T17:35:22;25.17;;;15.63;;
41167;SDS011;26906;45.658;9.272;2023-03-14T17:37:48;19.02;;;15.10;;
41167;SDS011;26906;45.658;9.272;2023-03-14T17:40:13;23.60;;;15.35;;
41167;SDS011;26906;45.658;9.272;2023-03-14T17:42:39;23.52;;;16.70;;
41167;SDS011;26906;45.658;9.272;2023-03-14T17:45:06;25.83;;;15.93;;
41167;SDS011;26906;45.658;9.272;2023-03-14T17:47:32;21.90;;;17.08;;
41167;SDS011;26906;45.658;9.272;2023-03-14T17:49:58;20.75;;;16.40;;
41167;SDS011;26906;45.658;9.272;2023-03-14T17:52:23;21.70;;;16.73;;
41167;SDS011;26906;45.658;9.272;2023-03-14T17:54:49;25.27;;;17.83;;
41167;SDS011;26906;45.658;9.272;2023-03-14T17:57:15;23.00;;;16.25;;
41167;SDS011;26906;45.658;9.272;2023-03-14T17:59:40;19.45;;;15.27;;
41167;SDS011;26906;45.658;9.272;2023-03-14T18:02:07;18.95;;;15.23;;
41167;SDS011;26906;45.658;9.272;2023-03-14T18:04:34;24.35;;;14.50;;
41167;SDS011;26906;45.658;9.272;2023-03-14T18:07:00;17.83;;;14.30;;
41167;SDS011;26906;45.658;9.272;2023-03-14T18:09:26;21.90;;;14.27;;
41167;SDS011;26906;45.658;9.272;2023-03-14T18:11:55;18.50;;;12.95;;
41167;SDS011;26906;45.658;9.272;2023-03-14T18:14:21;15.57;;;12.45;;
41167;SDS011;26906;45.658;9.272;2023-03-14T18:16:47;16.92;;;12.75;;
41167;SDS011;26906;45.658;9.272;2023-03-14T18:19:15;17.77;;;12.82;;
41167;SDS011;26906;45.658;9.272;2023-03-14T18:21:41;21.65;;;13.48;;
41167;SDS011;26906;45.658;9.272;2023-03-14T18:24:07;18.65;;;13.32;;
41167;SDS011;26906;45.658;9.272;2023-03-14T18:26:33;36.67;;;22.77;;
41167;SDS011;26906;45.658;9.272;2023-03-14T18:28:58;23.35;;;15.90;;
41167;SDS011;26906;45.658;9.272;2023-03-14T18:31:25;24.20;;;14.48;;
41167;SDS011;26906;45.658;9.272;2023-03-14T18:33:51;22.17;;;15.68;;
41167;SDS011;26906;45.658;9.272;2023-03-14T18:36:20;17.08;;;12.55;;
41167;SDS011;26906;45.658;9.272;2023-03-14T18:38:46;15.75;;;11.75;;
41167;SDS011;26906;45.658;9.272;2023-03-14T18:41:14;18.83;;;12.50;;
41167;SDS011;26906;45.658;9.272;2023-03-14T18:43:43;17.85;;;14.40;;
41167;SDS011;26906;45.658;9.272;2023-03-14T18:46:12;19.85;;;14.38;;
41167;SDS011;26906;45.658;9.272;2023-03-14T18:48:38;18.88;;;15.10;;
41167;SDS011;26906;45.658;9.272;2023-03-14T18:51:07;21.67;;;15.60;;
41167;SDS011;26906;45.658;9.272;2023-03-14T18:53:35;14.43;;;12.45;;
41167;SDS011;26906;45.658;9.272;2023-03-14T18:56:02;14.80;;;11.85;;
41167;SDS011;26906;45.658;9.272;2023-03-14T18:58:28;17.15;;;12.23;;
41167;SDS011;26906;45.658;9.272;2023-03-14T19:00:58;21.00;;;16.02;;
41167;SDS011;26906;45.658;9.272;2023-03-14T19:03:26;26.35;;;18.95;;
41167;SDS011;26906;45.658;9.272;2023-03-14T19:05:53;23.00;;;17.35;;
41167;SDS011;26906;45.658;9.272;2023-03-14T19:08:20;20.45;;;14.95;;
41167;SDS011;26906;45.658;9.272;2023-03-14T19:10:50;21.77;;;14.30;;
41167;SDS011;26906;45.658;9.272;2023-03-14T19:13:19;17.45;;;11.75;;
41167;SDS011;26906;45.658;9.272;2023-03-14T19:15:45;13.82;;;9.57;;
41167;SDS011;26906;45.658;9.272;2023-03-14T19:18:11;13.30;;;10.27;;
41167;SDS011;26906;45.658;9.272;2023-03-14T19:20:39;18.00;;;13.27;;
41167;SDS011;26906;45.658;9.272;2023-03-14T19:23:19;15.40;;;9.95;;
41167;SDS011;26906;45.658;9.272;2023-03-14T19:25:48;12.88;;;8.55;;
41167;SDS011;26906;45.658;9.272;2023-03-14T19:28:15;11.55;;;9.10;;
41167;SDS011;26906;45.658;9.272;2023-03-14T19:30:41;9.27;;;7.55;;
41167;SDS011;26906;45.658;9.272;2023-03-14T19:33:08;8.20;;;5.80;;
41167;SDS011;26906;45.658;9.272;2023-03-14T19:35:34;8.13;;;5.60;;
41167;SDS011;26906;45.658;9.272;2023-03-14T19:38:00;8.82;;;5.22;;
41167;SDS011;26906;45.658;9.272;2023-03-14T19:40:26;6.95;;;4.88;;
41167;SDS011;26906;45.658;9.272;2023-03-14T19:42:51;8.88;;;5.88;;
41167;SDS011;26906;45.658;9.272;2023-03-14T19:45:17;5.45;;;3.35;;
41167;SDS011;26906;45.658;9.272;2023-03-14T19:47:43;5.25;;;3.47;;
41167;SDS011;26906;45.658;9.272;2023-03-14T19:50:08;5.35;;;3.13;;
41167;SDS011;26906;45.658;9.272;2023-03-14T19:52:35;4.60;;;3.67;;
41167;SDS011;26906;45.658;9.272;2023-03-14T19:55:03;4.97;;;3.60;;
41167;SDS011;26906;45.658;9.272;2023-03-14T19:57:29;6.20;;;4.07;;
41167;SDS011;26906;45.658;9.272;2023-03-14T19:59:55;7.70;;;5.70;;
41167;SDS011;26906;45.658;9.272;2023-03-14T20:02:22;8.48;;;4.85;;
41167;SDS011;26906;45.658;9.272;2023-03-14T20:04:48;8.07;;;5.28;;
41167;SDS011;26906;45.658;9.272;2023-03-14T20:07:14;5.18;;;3.22;;
41167;SDS011;26906;45.658;9.272;2023-03-14T20:09:40;5.30;;;4.20;;
41167;SDS011;26906;45.658;9.272;2023-03-14T20:12:06;9.13;;;6.90;;
41167;SDS011;26906;45.658;9.272;2023-03-14T20:14:33;9.43;;;6.63;;
41167;SDS011;26906;45.658;9.272;2023-03-14T20:16:59;7.80;;;4.97;;
41167;SDS011;26906;45.658;9.272;2023-03-14T20:19:25;7.03;;;4.78;;
41167;SDS011;26906;45.658;9.272;2023-03-14T20:21:51;4.93;;;3.83;;
41167;SDS011;26906;45.658;9.272;2023-03-14T20:24:17;7.72;;;5.45;;
41167;SDS011;26906;45.658;9.272;2023-03-14T20:26:44;7.10;;;4.68;;
41167;SDS011;26906;45.658;9.272;2023-03-14T20:29:09;7.90;;;4.60;;
41167;SDS011;26906;45.658;9.272;2023-03-14T20:31:35;4.88;;;3.30;;
41167;SDS011;26906;45.658;9.272;2023-03-14T20:34:02;5.00;;;3.00;;
41167;SDS011;26906;45.658;9.272;2023-03-14T20:36:28;3.33;;;2.25;;
41167;SDS011;26906;45.658;9.272;2023-03-14T20:38:54;4.72;;;2.50;;
41167;SDS011;26906;45.658;9.272;2023-03-14T20:41:20;7.15;;;4.63;;
41167;SDS011;26906;45.658;9.272;2023-03-14T20:43:46;5.15;;;4.28;;
41167;SDS011;26906;45.658;9.272;2023-03-14T20:46:12;7.57;;;5.25;;
41167;SDS011;26906;45.658;9.272;2023-03-14T20:48:40;5.60;;;3.42;;
41167;SDS011;26906;45.658;9.272;2023-03-14T20:51:08;7.15;;;3.85;;
41167;SDS011;26906;45.658;9.272;2023-03-14T20:53:35;6.43;;;3.80;;
41167;SDS011;26906;45.658;9.272;2023-03-14T20:56:01;9.63;;;4.40;;
41167;SDS011;26906;45.658;9.272;2023-03-14T20:58:27;7.93;;;4.32;;
41167;SDS011;26906;45.658;9.272;2023-03-14T21:00:53;7.55;;;4.97;;
41167;SDS011;26906;45.658;9.272;2023-03-14T21:03:20;4.93;;;3.90;;
41167;SDS011;26906;45.658;9.272;2023-03-14T21:05:48;5.53;;;4.15;;
41167;SDS011;26906;45.658;9.272;2023-03-14T21:08:15;9.60;;;7.13;;
41167;SDS011;26906;45.658;9.272;2023-03-14T21:10:47;9.45;;;7.55;;
41167;SDS011;26906;45.658;9.272;2023-03-14T21:13:14;4.15;;;3.20;;
